sensor_id;sensor_type;location;lat;lon;timestamp;P1;durP1;ratioP1;P2;durP2;ratioP2
4939;SDS011;2485;49.326;7.214;2023-04-03T00:00:44;3.90;;;2.80;;
4939;SDS011;2485;49.326;7.214;2023-04-03T00:03:11;2.23;;;2.03;;
4939;SDS011;2485;49.326;7.214;2023-04-03T00:05:37;2.67;;;2.47;;
4939;SDS011;2485;49.326;7.214;2023-04-03T00:08:05;3.20;;;2.63;;
4939;SDS011;2485;49.326;7.214;2023-04-03T00:10:33;7.60;;;2.90;;
4939;SDS011;2485;49.326;7.214;2023-04-03T00:12:59;3.23;;;2.53;;
4939;SDS011;2485;49.326;7.214;2023-04-03T00:15:25;3.20;;;2.70;;
4939;SDS011;2485;49.326;7.214;2023-04-03T00:17:52;2.07;;;1.80;;
4939;SDS011;2485;49.326;7.214;2023-04-03T00:20:18;5.07;;;3.10;;
4939;SDS011;2485;49.326;7.214;2023-04-03T00:22:45;3.63;;;1.97;;
4939;SDS011;2485;49.326;7.214;2023-04-03T00:25:13;4.20;;;3.27;;
4939;SDS011;2485;49.326;7.214;2023-04-03T00:27:39;3.70;;;3.10;;
4939;SDS011;2485;49.326;7.214;2023-04-03T00:30:07;4.73;;;2.80;;
4939;SDS011;2485;49.326;7.214;2023-04-03T00:32:33;3.80;;;2.60;;
4939;SDS011;2485;49.326;7.214;2023-04-03T00:35:00;2.90;;;2.50;;
4939;SDS011;2485;49.326;7.214;2023-04-03T00:37:26;4.07;;;2.83;;
4939;SDS011;2485;49.326;7.214;2023-04-03T00:39:52;2.83;;;2.40;;
4939;SDS011;2485;49.326;7.214;2023-04-03T00:42:20;3.57;;;2.03;;
4939;SDS011;2485;49.326;7.214;2023-04-03T00:47:31;4.60;;;2.40;;
4939;SDS011;2485;49.326;7.214;2023-04-03T00:49:57;2.30;;;2.03;;
4939;SDS011;2485;49.326;7.214;2023-04-03T00:52:25;6.30;;;2.30;;
4939;SDS011;2485;49.326;7.214;2023-04-03T00:54:54;3.73;;;2.30;;
4939;SDS011;2485;49.326;7.214;2023-04-03T00:57:24;3.17;;;2.30;;
4939;SDS011;2485;49.326;7.214;2023-04-03T00:59:51;3.50;;;3.00;;
4939;SDS011;2485;49.326;7.214;2023-04-03T01:02:19;3.00;;;2.23;;
4939;SDS011;2485;49.326;7.214;2023-04-03T01:04:46;4.20;;;2.70;;
4939;SDS011;2485;49.326;7.214;2023-04-03T01:07:14;4.67;;;2.27;;
4939;SDS011;2485;49.326;7.214;2023-04-03T01:09:41;6.13;;;2.67;;
4939;SDS011;2485;49.326;7.214;2023-04-03T01:12:14;6.37;;;3.00;;
4939;SDS011;2485;49.326;7.214;2023-04-03T01:14:43;3.40;;;2.60;;
4939;SDS011;2485;49.326;7.214;2023-04-03T01:17:24;4.80;;;2.37;;
4939;SDS011;2485;49.326;7.214;2023-04-03T01:19:51;2.90;;;2.40;;
4939;SDS011;2485;49.326;7.214;2023-04-03T01:22:23;2.83;;;2.57;;
4939;SDS011;2485;49.326;7.214;2023-04-03T01:24:52;2.00;;;1.63;;
4939;SDS011;2485;49.326;7.214;2023-04-03T01:27:19;6.43;;;2.73;;
4939;SDS011;2485;49.326;7.214;2023-04-03T01:29:47;2.23;;;1.90;;
4939;SDS011;2485;49.326;7.214;2023-04-03T01:32:15;3.00;;;2.70;;
4939;SDS011;2485;49.326;7.214;2023-04-03T01:34:41;3.00;;;2.70;;
4939;SDS011;2485;49.326;7.214;2023-04-03T01:37:07;3.27;;;2.87;;
4939;SDS011;2485;49.326;7.214;2023-04-03T01:39:34;9.70;;;2.90;;
4939;SDS011;2485;49.326;7.214;2023-04-03T01:42:00;6.33;;;3.33;;
4939;SDS011;2485;49.326;7.214;2023-04-03T01:44:26;8.97;;;3.20;;
4939;SDS011;2485;49.326;7.214;2023-04-03T01:46:53;6.17;;;3.10;;
4939;SDS011;2485;49.326;7.214;2023-04-03T01:49:20;4.20;;;2.60;;
4939;SDS011;2485;49.326;7.214;2023-04-03T01:51:47;3.33;;;3.03;;
4939;SDS011;2485;49.326;7.214;2023-04-03T01:54:13;3.90;;;2.33;;
4939;SDS011;2485;49.326;7.214;2023-04-03T01:56:39;2.50;;;2.03;;
4939;SDS011;2485;49.326;7.214;2023-04-03T01:59:06;3.23;;;2.53;;
4939;SDS011;2485;49.326;7.214;2023-04-03T02:01:32;3.23;;;2.43;;
4939;SDS011;2485;49.326;7.214;2023-04-03T02:03:58;3.40;;;2.80;;
4939;SDS011;2485;49.326;7.214;2023-04-03T02:06:26;2.97;;;2.63;;
4939;SDS011;2485;49.326;7.214;2023-04-03T02:08:52;4.00;;;2.47;;
4939;SDS011;2485;49.326;7.214;2023-04-03T02:11:19;2.87;;;2.57;;
4939;SDS011;2485;49.326;7.214;2023-04-03T02:13:45;4.00;;;3.27;;
4939;SDS011;2485;49.326;7.214;2023-04-03T02:16:12;2.60;;;2.40;;
4939;SDS011;2485;49.326;7.214;2023-04-03T02:18:38;3.23;;;2.30;;
4939;SDS011;2485;49.326;7.214;2023-04-03T02:21:04;4.20;;;3.10;;
4939;SDS011;2485;49.326;7.214;2023-04-03T02:23:32;3.57;;;2.47;;
4939;SDS011;2485;49.326;7.214;2023-04-03T02:26:05;2.60;;;2.40;;
4939;SDS011;2485;49.326;7.214;2023-04-03T02:28:31;4.03;;;2.73;;
4939;SDS011;2485;49.326;7.214;2023-04-03T02:30:57;3.57;;;2.83;;
4939;SDS011;2485;49.326;7.214;2023-04-03T02:33:24;3.40;;;2.63;;
4939;SDS011;2485;49.326;7.214;2023-04-03T02:35:52;3.27;;;2.17;;
4939;SDS011;2485;49.326;7.214;2023-04-03T02:38:18;3.60;;;2.50;;
4939;SDS011;2485;49.326;7.214;2023-04-03T02:40:46;3.30;;;2.60;;
4939;SDS011;2485;49.326;7.214;2023-04-03T02:43:13;2.33;;;2.23;;
4939;SDS011;2485;49.326;7.214;2023-04-03T02:45:39;4.60;;;2.87;;
4939;SDS011;2485;49.326;7.214;2023-04-03T02:48:05;3.70;;;2.70;;
4939;SDS011;2485;49.326;7.214;2023-04-03T02:50:32;2.80;;;2.50;;
4939;SDS011;2485;49.326;7.214;2023-04-03T02:52:58;4.60;;;1.90;;
4939;SDS011;2485;49.326;7.214;2023-04-03T02:55:24;3.87;;;2.50;;
4939;SDS011;2485;49.326;7.214;2023-04-03T02:57:52;4.70;;;2.37;;
4939;SDS011;2485;49.326;7.214;2023-04-03T03:00:19;3.80;;;2.27;;
4939;SDS011;2485;49.326;7.214;2023-04-03T03:02:45;3.67;;;2.53;;
4939;SDS011;2485;49.326;7.214;2023-04-03T03:05:12;5.83;;;2.80;;
4939;SDS011;2485;49.326;7.214;2023-04-03T03:07:38;4.80;;;2.30;;
4939;SDS011;2485;49.326;7.214;2023-04-03T03:10:05;4.10;;;2.40;;
4939;SDS011;2485;49.326;7.214;2023-04-03T03:12:31;2.43;;;2.23;;
4939;SDS011;2485;49.326;7.214;2023-04-03T03:14:59;3.77;;;2.70;;
4939;SDS011;2485;49.326;7.214;2023-04-03T03:17:25;3.67;;;2.57;;
4939;SDS011;2485;49.326;7.214;2023-04-03T03:19:52;3.80;;;2.40;;
4939;SDS011;2485;49.326;7.214;2023-04-03T03:22:18;6.40;;;2.83;;
4939;SDS011;2485;49.326;7.214;2023-04-03T03:24:44;3.60;;;2.90;;
4939;SDS011;2485;49.326;7.214;2023-04-03T03:27:11;4.43;;;2.93;;
4939;SDS011;2485;49.326;7.214;2023-04-03T03:29:38;4.57;;;2.50;;
4939;SDS011;2485;49.326;7.214;2023-04-03T03:32:05;5.70;;;2.30;;
4939;SDS011;2485;49.326;7.214;2023-04-03T03:34:32;3.60;;;3.20;;
4939;SDS011;2485;49.326;7.214;2023-04-03T03:36:58;3.80;;;2.33;;
4939;SDS011;2485;49.326;7.214;2023-04-03T03:39:24;3.10;;;2.73;;
4939;SDS011;2485;49.326;7.214;2023-04-03T03:41:51;3.00;;;2.67;;
4939;SDS011;2485;49.326;7.214;2023-04-03T03:44:18;3.50;;;2.30;;
4939;SDS011;2485;49.326;7.214;2023-04-03T03:46:44;3.57;;;2.70;;
4939;SDS011;2485;49.326;7.214;2023-04-03T03:49:12;2.70;;;1.77;;
4939;SDS011;2485;49.326;7.214;2023-04-03T03:51:38;7.60;;;2.53;;
4939;SDS011;2485;49.326;7.214;2023-04-03T03:54:05;3.07;;;2.33;;
4939;SDS011;2485;49.326;7.214;2023-04-03T03:56:33;2.37;;;2.17;;
4939;SDS011;2485;49.326;7.214;2023-04-03T03:59:00;5.87;;;2.63;;
4939;SDS011;2485;49.326;7.214;2023-04-03T04:01:26;2.60;;;1.87;;
4939;SDS011;2485;49.326;7.214;2023-04-03T04:03:53;3.57;;;2.57;;
4939;SDS011;2485;49.326;7.214;2023-04-03T04:06:21;5.77;;;2.87;;
4939;SDS011;2485;49.326;7.214;2023-04-03T04:08:48;4.87;;;2.83;;
4939;SDS011;2485;49.326;7.214;2023-04-03T04:11:14;7.43;;;3.10;;
4939;SDS011;2485;49.326;7.214;2023-04-03T04:13:41;3.23;;;2.60;;
4939;SDS011;2485;49.326;7.214;2023-04-03T04:16:07;3.50;;;2.70;;
4939;SDS011;2485;49.326;7.214;2023-04-03T04:18:34;4.13;;;2.90;;
4939;SDS011;2485;49.326;7.214;2023-04-03T04:21:01;4.40;;;3.20;;
4939;SDS011;2485;49.326;7.214;2023-04-03T04:23:28;4.13;;;2.73;;
4939;SDS011;2485;49.326;7.214;2023-04-03T04:25:55;4.73;;;3.20;;
4939;SDS011;2485;49.326;7.214;2023-04-03T04:28:21;5.13;;;3.37;;
4939;SDS011;2485;49.326;7.214;2023-04-03T04:30:47;3.67;;;2.70;;
4939;SDS011;2485;49.326;7.214;2023-04-03T04:33:14;4.53;;;3.27;;
4939;SDS011;2485;49.326;7.214;2023-04-03T04:35:41;4.67;;;3.73;;
4939;SDS011;2485;49.326;7.214;2023-04-03T04:38:08;5.70;;;3.73;;
4939;SDS011;2485;49.326;7.214;2023-04-03T04:40:35;6.53;;;3.90;;
4939;SDS011;2485;49.326;7.214;2023-04-03T04:43:02;4.40;;;3.10;;
4939;SDS011;2485;49.326;7.214;2023-04-03T04:45:29;3.80;;;2.87;;
4939;SDS011;2485;49.326;7.214;2023-04-03T04:47:55;6.00;;;4.03;;
4939;SDS011;2485;49.326;7.214;2023-04-03T04:50:22;6.60;;;3.00;;
4939;SDS011;2485;49.326;7.214;2023-04-03T04:52:48;2.87;;;2.27;;
4939;SDS011;2485;49.326;7.214;2023-04-03T04:55:15;4.53;;;3.40;;
4939;SDS011;2485;49.326;7.214;2023-04-03T04:57:42;3.80;;;3.00;;
4939;SDS011;2485;49.326;7.214;2023-04-03T05:00:09;8.03;;;3.83;;
4939;SDS011;2485;49.326;7.214;2023-04-03T05:02:35;7.57;;;3.40;;
4939;SDS011;2485;49.326;7.214;2023-04-03T05:05:02;3.90;;;3.03;;
4939;SDS011;2485;49.326;7.214;2023-04-03T05:07:28;3.13;;;2.60;;
4939;SDS011;2485;49.326;7.214;2023-04-03T05:09:55;3.10;;;2.67;;
4939;SDS011;2485;49.326;7.214;2023-04-03T05:12:21;4.67;;;2.63;;
4939;SDS011;2485;49.326;7.214;2023-04-03T05:14:49;4.47;;;2.73;;
4939;SDS011;2485;49.326;7.214;2023-04-03T05:17:15;2.43;;;2.20;;
4939;SDS011;2485;49.326;7.214;2023-04-03T05:19:41;5.37;;;3.40;;
4939;SDS011;2485;49.326;7.214;2023-04-03T05:22:08;6.67;;;3.20;;
4939;SDS011;2485;49.326;7.214;2023-04-03T05:24:34;4.47;;;2.80;;
4939;SDS011;2485;49.326;7.214;2023-04-03T05:27:01;5.83;;;2.93;;
4939;SDS011;2485;49.326;7.214;2023-04-03T05:29:27;6.10;;;4.07;;
4939;SDS011;2485;49.326;7.214;2023-04-03T05:31:55;4.30;;;2.33;;
4939;SDS011;2485;49.326;7.214;2023-04-03T05:34:21;2.13;;;1.70;;
4939;SDS011;2485;49.326;7.214;2023-04-03T05:36:48;4.07;;;2.80;;
4939;SDS011;2485;49.326;7.214;2023-04-03T05:39:14;3.00;;;2.40;;
4939;SDS011;2485;49.326;7.214;2023-04-03T05:41:40;4.57;;;2.80;;
4939;SDS011;2485;49.326;7.214;2023-04-03T05:44:06;4.53;;;2.50;;
4939;SDS011;2485;49.326;7.214;2023-04-03T05:46:33;5.67;;;2.70;;
4939;SDS011;2485;49.326;7.214;2023-04-03T05:49:00;4.10;;;2.43;;
4939;SDS011;2485;49.326;7.214;2023-04-03T05:51:29;3.37;;;2.43;;
4939;SDS011;2485;49.326;7.214;2023-04-03T05:53:57;3.50;;;2.63;;
4939;SDS011;2485;49.326;7.214;2023-04-03T05:56:25;2.37;;;2.17;;
4939;SDS011;2485;49.326;7.214;2023-04-03T05:58:52;3.67;;;2.20;;
4939;SDS011;2485;49.326;7.214;2023-04-03T06:01:18;3.43;;;2.33;;
4939;SDS011;2485;49.326;7.214;2023-04-03T06:03:44;4.13;;;2.23;;
4939;SDS011;2485;49.326;7.214;2023-04-03T06:06:13;4.73;;;2.70;;
4939;SDS011;2485;49.326;7.214;2023-04-03T06:08:40;5.50;;;2.97;;
4939;SDS011;2485;49.326;7.214;2023-04-03T06:11:06;1.73;;;1.63;;
4939;SDS011;2485;49.326;7.214;2023-04-03T06:13:33;4.60;;;2.60;;
4939;SDS011;2485;49.326;7.214;2023-04-03T06:16:00;3.33;;;2.37;;
4939;SDS011;2485;49.326;7.214;2023-04-03T06:18:27;5.60;;;2.60;;
4939;SDS011;2485;49.326;7.214;2023-04-03T06:20:53;2.60;;;2.20;;
4939;SDS011;2485;49.326;7.214;2023-04-03T06:23:21;3.10;;;2.00;;
4939;SDS011;2485;49.326;7.214;2023-04-03T06:25:48;2.70;;;1.83;;
4939;SDS011;2485;49.326;7.214;2023-04-03T06:28:14;3.37;;;1.63;;
4939;SDS011;2485;49.326;7.214;2023-04-03T06:30:40;3.70;;;1.67;;
4939;SDS011;2485;49.326;7.214;2023-04-03T06:33:07;3.03;;;1.80;;
4939;SDS011;2485;49.326;7.214;2023-04-03T06:35:33;2.00;;;1.80;;
4939;SDS011;2485;49.326;7.214;2023-04-03T06:38:00;4.03;;;1.70;;
4939;SDS011;2485;49.326;7.214;2023-04-03T06:40:27;2.60;;;1.30;;
4939;SDS011;2485;49.326;7.214;2023-04-03T06:42:54;3.00;;;2.17;;
4939;SDS011;2485;49.326;7.214;2023-04-03T06:45:21;2.10;;;1.73;;
4939;SDS011;2485;49.326;7.214;2023-04-03T06:47:47;5.83;;;2.17;;
4939;SDS011;2485;49.326;7.214;2023-04-03T06:50:13;3.50;;;1.67;;
4939;SDS011;2485;49.326;7.214;2023-04-03T06:52:41;2.20;;;1.93;;
4939;SDS011;2485;49.326;7.214;2023-04-03T06:55:07;1.47;;;1.37;;
4939;SDS011;2485;49.326;7.214;2023-04-03T06:57:35;3.03;;;1.90;;
4939;SDS011;2485;49.326;7.214;2023-04-03T07:00:02;1.80;;;1.70;;
4939;SDS011;2485;49.326;7.214;2023-04-03T07:02:29;2.03;;;1.57;;
4939;SDS011;2485;49.326;7.214;2023-04-03T07:04:55;3.10;;;1.73;;
4939;SDS011;2485;49.326;7.214;2023-04-03T07:07:21;3.70;;;1.93;;
4939;SDS011;2485;49.326;7.214;2023-04-03T07:09:48;3.20;;;2.10;;
4939;SDS011;2485;49.326;7.214;2023-04-03T07:12:14;1.30;;;1.20;;
4939;SDS011;2485;49.326;7.214;2023-04-03T07:14:42;3.10;;;1.50;;
4939;SDS011;2485;49.326;7.214;2023-04-03T07:17:08;2.97;;;1.43;;
4939;SDS011;2485;49.326;7.214;2023-04-03T07:19:35;2.40;;;1.63;;
4939;SDS011;2485;49.326;7.214;2023-04-03T07:22:01;2.70;;;1.87;;
4939;SDS011;2485;49.326;7.214;2023-04-03T07:24:28;2.40;;;1.20;;
4939;SDS011;2485;49.326;7.214;2023-04-03T07:26:55;1.90;;;1.73;;
4939;SDS011;2485;49.326;7.214;2023-04-03T07:29:21;1.70;;;1.50;;
4939;SDS011;2485;49.326;7.214;2023-04-03T07:31:49;2.97;;;1.97;;
4939;SDS011;2485;49.326;7.214;2023-04-03T07:34:15;3.87;;;1.77;;
4939;SDS011;2485;49.326;7.214;2023-04-03T07:36:41;4.47;;;2.10;;
4939;SDS011;2485;49.326;7.214;2023-04-03T07:39:08;3.37;;;1.90;;
4939;SDS011;2485;49.326;7.214;2023-04-03T07:41:34;5.30;;;2.50;;
4939;SDS011;2485;49.326;7.214;2023-04-03T07:44:00;5.03;;;2.60;;
4939;SDS011;2485;49.326;7.214;2023-04-03T07:46:27;2.03;;;1.80;;
4939;SDS011;2485;49.326;7.214;2023-04-03T07:48:55;2.77;;;1.87;;
4939;SDS011;2485;49.326;7.214;2023-04-03T07:51:21;7.40;;;2.23;;
4939;SDS011;2485;49.326;7.214;2023-04-03T07:53:49;2.90;;;1.80;;
4939;SDS011;2485;49.326;7.214;2023-04-03T07:56:16;2.13;;;1.93;;
4939;SDS011;2485;49.326;7.214;2023-04-03T07:58:42;3.47;;;1.40;;
4939;SDS011;2485;49.326;7.214;2023-04-03T08:01:08;4.57;;;1.90;;
4939;SDS011;2485;49.326;7.214;2023-04-03T08:03:35;2.10;;;1.93;;
4939;SDS011;2485;49.326;7.214;2023-04-03T08:06:04;6.67;;;2.47;;
4939;SDS011;2485;49.326;7.214;2023-04-03T08:08:31;4.13;;;2.10;;
4939;SDS011;2485;49.326;7.214;2023-04-03T08:10:59;20.33;;;2.40;;
4939;SDS011;2485;49.326;7.214;2023-04-03T08:13:27;4.50;;;2.03;;
4939;SDS011;2485;49.326;7.214;2023-04-03T08:15:53;3.67;;;1.63;;
4939;SDS011;2485;49.326;7.214;2023-04-03T08:18:22;3.83;;;1.43;;
4939;SDS011;2485;49.326;7.214;2023-04-03T08:20:49;1.70;;;1.40;;
4939;SDS011;2485;49.326;7.214;2023-04-03T08:23:17;2.33;;;1.70;;
4939;SDS011;2485;49.326;7.214;2023-04-03T08:25:44;2.90;;;1.80;;
4939;SDS011;2485;49.326;7.214;2023-04-03T08:28:10;4.10;;;1.50;;
4939;SDS011;2485;49.326;7.214;2023-04-03T08:30:38;4.33;;;1.83;;
4939;SDS011;2485;49.326;7.214;2023-04-03T08:33:04;2.40;;;1.50;;
4939;SDS011;2485;49.326;7.214;2023-04-03T08:35:31;3.10;;;1.47;;
4939;SDS011;2485;49.326;7.214;2023-04-03T08:37:57;1.70;;;1.50;;
4939;SDS011;2485;49.326;7.214;2023-04-03T08:40:25;1.93;;;1.40;;
4939;SDS011;2485;49.326;7.214;2023-04-03T08:42:54;2.80;;;1.70;;
4939;SDS011;2485;49.326;7.214;2023-04-03T08:45:22;4.87;;;1.93;;
4939;SDS011;2485;49.326;7.214;2023-04-03T08:47:53;2.60;;;1.50;;
4939;SDS011;2485;49.326;7.214;2023-04-03T08:50:23;3.70;;;1.90;;
4939;SDS011;2485;49.326;7.214;2023-04-03T08:52:52;1.63;;;1.40;;
4939;SDS011;2485;49.326;7.214;2023-04-03T08:55:22;7.23;;;2.07;;
4939;SDS011;2485;49.326;7.214;2023-04-03T08:57:53;4.80;;;1.70;;
4939;SDS011;2485;49.326;7.214;2023-04-03T09:00:24;2.50;;;1.30;;
4939;SDS011;2485;49.326;7.214;2023-04-03T09:02:52;2.30;;;1.93;;
4939;SDS011;2485;49.326;7.214;2023-04-03T09:05:20;4.20;;;2.30;;
4939;SDS011;2485;49.326;7.214;2023-04-03T09:07:49;1.83;;;1.40;;
4939;SDS011;2485;49.326;7.214;2023-04-03T09:10:19;1.63;;;1.47;;
4939;SDS011;2485;49.326;7.214;2023-04-03T09:12:49;1.57;;;1.30;;
4939;SDS011;2485;49.326;7.214;2023-04-03T09:15:25;2.13;;;1.53;;
4939;SDS011;2485;49.326;7.214;2023-04-03T09:17:59;2.53;;;1.50;;
4939;SDS011;2485;49.326;7.214;2023-04-03T09:20:30;3.23;;;1.43;;
4939;SDS011;2485;49.326;7.214;2023-04-03T09:22:57;2.00;;;1.23;;
4939;SDS011;2485;49.326;7.214;2023-04-03T09:25:24;2.80;;;1.60;;
4939;SDS011;2485;49.326;7.214;2023-04-03T09:27:52;2.50;;;1.30;;
4939;SDS011;2485;49.326;7.214;2023-04-03T09:30:20;1.57;;;1.37;;
4939;SDS011;2485;49.326;7.214;2023-04-03T09:32:47;2.23;;;1.67;;
4939;SDS011;2485;49.326;7.214;2023-04-03T09:35:19;3.80;;;1.80;;
4939;SDS011;2485;49.326;7.214;2023-04-03T09:37:46;1.80;;;1.60;;
4939;SDS011;2485;49.326;7.214;2023-04-03T09:42:55;2.53;;;1.70;;
4939;SDS011;2485;49.326;7.214;2023-04-03T09:45:24;5.70;;;2.10;;
4939;SDS011;2485;49.326;7.214;2023-04-03T09:48:06;2.80;;;1.50;;
4939;SDS011;2485;49.326;7.214;2023-04-03T09:50:33;4.00;;;2.00;;
4939;SDS011;2485;49.326;7.214;2023-04-03T09:53:02;2.53;;;1.80;;
4939;SDS011;2485;49.326;7.214;2023-04-03T09:55:30;3.60;;;1.30;;
4939;SDS011;2485;49.326;7.214;2023-04-03T09:57:57;2.67;;;1.40;;
4939;SDS011;2485;49.326;7.214;2023-04-03T10:00:25;2.20;;;1.43;;
4939;SDS011;2485;49.326;7.214;2023-04-03T10:02:53;1.90;;;1.50;;
4939;SDS011;2485;49.326;7.214;2023-04-03T10:05:28;3.77;;;1.27;;
4939;SDS011;2485;49.326;7.214;2023-04-03T10:08:07;1.93;;;1.10;;
4939;SDS011;2485;49.326;7.214;2023-04-03T10:10:34;1.50;;;1.40;;
4939;SDS011;2485;49.326;7.214;2023-04-03T10:13:04;4.83;;;1.60;;
4939;SDS011;2485;49.326;7.214;2023-04-03T10:15:32;4.33;;;1.50;;
4939;SDS011;2485;49.326;7.214;2023-04-03T10:18:02;5.13;;;2.40;;
4939;SDS011;2485;49.326;7.214;2023-04-03T10:20:33;3.57;;;1.67;;
4939;SDS011;2485;49.326;7.214;2023-04-03T10:23:02;2.70;;;1.27;;
4939;SDS011;2485;49.326;7.214;2023-04-03T10:25:31;1.53;;;1.43;;
4939;SDS011;2485;49.326;7.214;2023-04-03T10:27:59;3.57;;;2.00;;
4939;SDS011;2485;49.326;7.214;2023-04-03T10:30:31;2.03;;;1.50;;
4939;SDS011;2485;49.326;7.214;2023-04-03T10:33:02;1.87;;;1.30;;
4939;SDS011;2485;49.326;7.214;2023-04-03T10:35:35;6.20;;;1.37;;
4939;SDS011;2485;49.326;7.214;2023-04-03T10:38:04;4.00;;;2.40;;
4939;SDS011;2485;49.326;7.214;2023-04-03T10:40:34;2.53;;;1.30;;
4939;SDS011;2485;49.326;7.214;2023-04-03T10:43:06;1.77;;;1.20;;
4939;SDS011;2485;49.326;7.214;2023-04-03T10:45:43;1.50;;;1.20;;
4939;SDS011;2485;49.326;7.214;2023-04-03T10:48:16;3.00;;;1.77;;
4939;SDS011;2485;49.326;7.214;2023-04-03T10:50:46;2.07;;;1.37;;
4939;SDS011;2485;49.326;7.214;2023-04-03T10:53:17;2.97;;;1.67;;
4939;SDS011;2485;49.326;7.214;2023-04-03T10:55:50;2.83;;;1.60;;
4939;SDS011;2485;49.326;7.214;2023-04-03T10:58:20;2.80;;;1.67;;
4939;SDS011;2485;49.326;7.214;2023-04-03T11:00:50;3.00;;;1.53;;
4939;SDS011;2485;49.326;7.214;2023-04-03T11:03:24;2.07;;;1.50;;
4939;SDS011;2485;49.326;7.214;2023-04-03T11:05:53;6.03;;;1.40;;
4939;SDS011;2485;49.326;7.214;2023-04-03T11:08:23;2.97;;;1.50;;
4939;SDS011;2485;49.326;7.214;2023-04-03T11:10:51;5.93;;;1.70;;
4939;SDS011;2485;49.326;7.214;2023-04-03T11:13:19;3.63;;;1.50;;
4939;SDS011;2485;49.326;7.214;2023-04-03T11:15:48;4.40;;;2.10;;
4939;SDS011;2485;49.326;7.214;2023-04-03T11:18:15;2.43;;;1.90;;
4939;SDS011;2485;49.326;7.214;2023-04-03T11:20:46;3.00;;;1.63;;
4939;SDS011;2485;49.326;7.214;2023-04-03T11:23:15;1.53;;;1.30;;
4939;SDS011;2485;49.326;7.214;2023-04-03T11:25:45;2.40;;;1.40;;
4939;SDS011;2485;49.326;7.214;2023-04-03T11:28:13;2.30;;;1.33;;
4939;SDS011;2485;49.326;7.214;2023-04-03T11:30:41;2.77;;;1.93;;
4939;SDS011;2485;49.326;7.214;2023-04-03T11:33:28;2.60;;;1.50;;
4939;SDS011;2485;49.326;7.214;2023-04-03T11:35:59;3.07;;;1.30;;
4939;SDS011;2485;49.326;7.214;2023-04-03T11:38:27;3.27;;;1.47;;
4939;SDS011;2485;49.326;7.214;2023-04-03T11:40:55;7.87;;;1.50;;
4939;SDS011;2485;49.326;7.214;2023-04-03T11:43:23;3.47;;;2.07;;
4939;SDS011;2485;49.326;7.214;2023-04-03T11:45:55;3.80;;;1.70;;
4939;SDS011;2485;49.326;7.214;2023-04-03T11:53:51;1.43;;;1.33;;
4939;SDS011;2485;49.326;7.214;2023-04-03T11:56:28;2.90;;;1.30;;
4939;SDS011;2485;49.326;7.214;2023-04-03T12:01:42;3.27;;;1.50;;
4939;SDS011;2485;49.326;7.214;2023-04-03T12:04:09;4.03;;;1.50;;
4939;SDS011;2485;49.326;7.214;2023-04-03T12:09:24;4.77;;;1.33;;
4939;SDS011;2485;49.326;7.214;2023-04-03T12:11:51;1.43;;;1.13;;
4939;SDS011;2485;49.326;7.214;2023-04-03T12:14:17;2.30;;;1.30;;
4939;SDS011;2485;49.326;7.214;2023-04-03T12:16:44;3.60;;;1.40;;
4939;SDS011;2485;49.326;7.214;2023-04-03T12:19:31;2.43;;;1.20;;
4939;SDS011;2485;49.326;7.214;2023-04-03T12:22:09;9.50;;;1.70;;
4939;SDS011;2485;49.326;7.214;2023-04-03T12:24:37;3.70;;;1.10;;
4939;SDS011;2485;49.326;7.214;2023-04-03T12:29:51;1.40;;;1.20;;
4939;SDS011;2485;49.326;7.214;2023-04-03T12:32:22;2.77;;;1.50;;
4939;SDS011;2485;49.326;7.214;2023-04-03T12:34:56;5.30;;;1.40;;
4939;SDS011;2485;49.326;7.214;2023-04-03T12:37:34;2.60;;;1.47;;
4939;SDS011;2485;49.326;7.214;2023-04-03T12:40:07;1.63;;;1.20;;
4939;SDS011;2485;49.326;7.214;2023-04-03T12:42:40;2.00;;;1.30;;
4939;SDS011;2485;49.326;7.214;2023-04-03T12:45:12;3.90;;;1.13;;
4939;SDS011;2485;49.326;7.214;2023-04-03T12:47:40;1.73;;;1.17;;
4939;SDS011;2485;49.326;7.214;2023-04-03T12:50:16;2.13;;;1.30;;
4939;SDS011;2485;49.326;7.214;2023-04-03T12:52:45;1.83;;;1.40;;
4939;SDS011;2485;49.326;7.214;2023-04-03T12:55:15;1.33;;;1.00;;
4939;SDS011;2485;49.326;7.214;2023-04-03T12:57:42;3.67;;;1.40;;
4939;SDS011;2485;49.326;7.214;2023-04-03T13:00:31;4.17;;;1.80;;
4939;SDS011;2485;49.326;7.214;2023-04-03T13:02:58;1.13;;;1.07;;
4939;SDS011;2485;49.326;7.214;2023-04-03T13:05:25;3.17;;;1.37;;
4939;SDS011;2485;49.326;7.214;2023-04-03T13:07:52;1.80;;;1.30;;
4939;SDS011;2485;49.326;7.214;2023-04-03T13:10:23;1.87;;;1.40;;
4939;SDS011;2485;49.326;7.214;2023-04-03T13:12:50;4.10;;;1.57;;
4939;SDS011;2485;49.326;7.214;2023-04-03T13:15:18;3.53;;;1.40;;
4939;SDS011;2485;49.326;7.214;2023-04-03T13:17:45;1.93;;;1.30;;
4939;SDS011;2485;49.326;7.214;2023-04-03T13:20:14;3.33;;;1.53;;
4939;SDS011;2485;49.326;7.214;2023-04-03T13:22:43;2.73;;;1.20;;
4939;SDS011;2485;49.326;7.214;2023-04-03T13:25:11;2.53;;;1.50;;
4939;SDS011;2485;49.326;7.214;2023-04-03T13:27:40;2.20;;;1.40;;
4939;SDS011;2485;49.326;7.214;2023-04-03T13:30:17;4.50;;;1.63;;
4939;SDS011;2485;49.326;7.214;2023-04-03T13:32:45;1.17;;;1.07;;
4939;SDS011;2485;49.326;7.214;2023-04-03T13:35:28;2.10;;;1.20;;
4939;SDS011;2485;49.326;7.214;2023-04-03T13:37:57;1.67;;;1.53;;
4939;SDS011;2485;49.326;7.214;2023-04-03T13:40:24;2.73;;;1.50;;
4939;SDS011;2485;49.326;7.214;2023-04-03T13:42:59;2.30;;;1.40;;
4939;SDS011;2485;49.326;7.214;2023-04-03T13:45:26;5.30;;;1.30;;
4939;SDS011;2485;49.326;7.214;2023-04-03T13:48:05;2.90;;;1.40;;
4939;SDS011;2485;49.326;7.214;2023-04-03T13:50:32;2.30;;;1.60;;
4939;SDS011;2485;49.326;7.214;2023-04-03T13:53:00;1.63;;;1.40;;
4939;SDS011;2485;49.326;7.214;2023-04-03T13:55:27;3.13;;;1.50;;
4939;SDS011;2485;49.326;7.214;2023-04-03T13:57:55;1.53;;;1.13;;
4939;SDS011;2485;49.326;7.214;2023-04-03T14:00:31;2.20;;;1.40;;
4939;SDS011;2485;49.326;7.214;2023-04-03T14:02:57;1.53;;;1.40;;
4939;SDS011;2485;49.326;7.214;2023-04-03T14:05:24;1.67;;;1.20;;
4939;SDS011;2485;49.326;7.214;2023-04-03T14:07:51;3.07;;;1.30;;
4939;SDS011;2485;49.326;7.214;2023-04-03T14:10:18;1.63;;;1.10;;
4939;SDS011;2485;49.326;7.214;2023-04-03T14:12:45;2.20;;;1.47;;
4939;SDS011;2485;49.326;7.214;2023-04-03T14:15:15;2.77;;;1.87;;
4939;SDS011;2485;49.326;7.214;2023-04-03T14:17:43;1.60;;;1.23;;
4939;SDS011;2485;49.326;7.214;2023-04-03T14:20:13;2.63;;;1.47;;
4939;SDS011;2485;49.326;7.214;2023-04-03T14:22:40;2.90;;;1.50;;
4939;SDS011;2485;49.326;7.214;2023-04-03T14:25:06;1.93;;;1.27;;
4939;SDS011;2485;49.326;7.214;2023-04-03T14:27:35;1.97;;;1.33;;
4939;SDS011;2485;49.326;7.214;2023-04-03T14:30:03;1.43;;;0.87;;
4939;SDS011;2485;49.326;7.214;2023-04-03T14:32:30;1.00;;;0.90;;
4939;SDS011;2485;49.326;7.214;2023-04-03T14:34:58;1.23;;;1.10;;
4939;SDS011;2485;49.326;7.214;2023-04-03T14:37:25;5.00;;;1.80;;
4939;SDS011;2485;49.326;7.214;2023-04-03T14:39:53;3.07;;;1.47;;
4939;SDS011;2485;49.326;7.214;2023-04-03T14:42:20;6.00;;;1.97;;
4939;SDS011;2485;49.326;7.214;2023-04-03T14:44:47;5.30;;;1.53;;
4939;SDS011;2485;49.326;7.214;2023-04-03T14:47:15;3.07;;;1.47;;
4939;SDS011;2485;49.326;7.214;2023-04-03T14:49:42;2.17;;;1.40;;
4939;SDS011;2485;49.326;7.214;2023-04-03T14:52:11;2.50;;;1.20;;
4939;SDS011;2485;49.326;7.214;2023-04-03T14:54:42;3.33;;;1.50;;
4939;SDS011;2485;49.326;7.214;2023-04-03T14:57:08;2.10;;;1.20;;
4939;SDS011;2485;49.326;7.214;2023-04-03T14:59:36;1.40;;;1.10;;
4939;SDS011;2485;49.326;7.214;2023-04-03T15:02:05;1.20;;;1.10;;
4939;SDS011;2485;49.326;7.214;2023-04-03T15:04:35;4.33;;;1.57;;
4939;SDS011;2485;49.326;7.214;2023-04-03T15:07:01;12.23;;;1.90;;
4939;SDS011;2485;49.326;7.214;2023-04-03T15:09:29;3.37;;;1.47;;
4939;SDS011;2485;49.326;7.214;2023-04-03T15:11:55;5.20;;;1.37;;
4939;SDS011;2485;49.326;7.214;2023-04-03T15:14:22;5.60;;;1.70;;
4939;SDS011;2485;49.326;7.214;2023-04-03T15:16:48;3.93;;;1.80;;
4939;SDS011;2485;49.326;7.214;2023-04-03T15:19:15;1.57;;;1.20;;
4939;SDS011;2485;49.326;7.214;2023-04-03T15:21:41;1.77;;;1.10;;
4939;SDS011;2485;49.326;7.214;2023-04-03T15:24:08;1.83;;;1.30;;
4939;SDS011;2485;49.326;7.214;2023-04-03T15:26:36;1.60;;;1.20;;
4939;SDS011;2485;49.326;7.214;2023-04-03T15:29:03;4.33;;;1.80;;
4939;SDS011;2485;49.326;7.214;2023-04-03T15:31:29;1.70;;;1.30;;
4939;SDS011;2485;49.326;7.214;2023-04-03T15:33:56;4.00;;;1.60;;
4939;SDS011;2485;49.326;7.214;2023-04-03T15:36:22;2.33;;;1.40;;
4939;SDS011;2485;49.326;7.214;2023-04-03T15:38:49;2.60;;;1.40;;